createdAt,value
2018-12-29T00:02:13.011Z,96572.38
2018-12-29T00:04:45.718Z,96578.80
2018-12-29T00:07:18.415Z,96573.73
2018-12-29T00:09:51.000Z,96573.17
2018-12-29T00:12:23.859Z,96571.39
2018-12-29T00:14:56.536Z,96570.83
2018-12-29T00:17:29.119Z,96563.56
2018-12-29T00:20:02.091Z,96558.48
2018-12-29T00:22:34.734Z,96561.58
2018-12-29T00:25:07.563Z,96564.16
2018-12-29T00:27:40.198Z,96572.09
2018-12-29T00:30:13.039Z,96566.23
2018-12-29T00:32:45.634Z,96561.93
2018-12-29T00:35:18.271Z,96565.48
2018-12-29T00:37:50.894Z,96563.59
2018-12-29T00:40:23.521Z,96569.08
2018-12-29T00:42:56.145Z,96556.55
2018-12-29T00:45:28.844Z,96547.41
2018-12-29T00:48:01.459Z,96555.10
2018-12-29T00:50:34.203Z,96554.13
2018-12-29T00:53:07.001Z,96553.55
2018-12-29T00:55:39.579Z,96565.09
2018-12-29T00:58:12.239Z,96573.26
2018-12-29T01:00:44.897Z,96585.67
2018-12-29T01:03:17.548Z,96573.80
2018-12-29T01:05:50.233Z,96585.97
2018-12-29T01:08:22.915Z,96591.81
2018-12-29T01:10:55.516Z,96600.40
2018-12-29T01:13:28.221Z,96603.81
2018-12-29T01:16:00.970Z,96609.52
2018-12-29T01:18:34.677Z,96619.02
2018-12-29T01:21:07.438Z,96621.96
2018-12-29T01:23:40.116Z,96624.83
2018-12-29T01:26:12.986Z,96617.05
2018-12-29T01:28:45.602Z,96620.45
2018-12-29T01:31:18.196Z,96621.12
2018-12-29T01:33:50.894Z,96616.14
2018-12-29T01:36:23.484Z,96624.20
2018-12-29T01:38:56.173Z,96620.17
2018-12-29T01:41:28.813Z,96608.30
2018-12-29T01:44:01.640Z,96607.07
2018-12-29T01:46:34.255Z,96608.28
2018-12-29T01:49:06.889Z,96614.77
2018-12-29T01:51:39.492Z,96616.79
2018-12-29T01:54:12.326Z,96601.59
2018-12-29T01:56:44.940Z,96606.12
2018-12-29T01:59:17.578Z,96614.78
2018-12-29T02:01:51.508Z,96604.89
2018-12-29T02:04:24.125Z,96602.53
2018-12-29T02:06:56.765Z,96611.64
2018-12-29T02:09:29.415Z,96601.09
2018-12-29T02:12:02.137Z,96613.83
2018-12-29T02:14:34.750Z,96609.75
2018-12-29T02:17:07.492Z,96614.55
2018-12-29T02:19:40.220Z,96609.34
2018-12-29T02:22:12.792Z,96602.27
2018-12-29T02:24:45.404Z,96587.96
2018-12-29T02:27:18.044Z,96595.27
2018-12-29T02:29:49.870Z,96595.45
2018-12-29T02:32:22.500Z,96584.05
2018-12-29T02:34:55.462Z,96578.63
2018-12-29T02:37:28.252Z,96572.31
2018-12-29T02:40:00.969Z,96577.47
2018-12-29T02:42:33.633Z,96584.83
2018-12-29T02:45:06.962Z,96599.36
2018-12-29T02:47:39.192Z,96598.70
2018-12-29T02:50:11.913Z,96577.45
2018-12-29T02:52:44.551Z,96576.31
2018-12-29T02:55:17.206Z,96574.52
2018-12-29T02:57:49.817Z,96577.53
2018-12-29T03:00:22.527Z,96579.13
2018-12-29T03:02:55.169Z,96564.05
2018-12-29T03:05:27.805Z,96556.20
2018-12-29T03:08:00.348Z,96569.38
2018-12-29T03:10:32.970Z,96567.91
2018-12-29T03:13:05.558Z,96563.58
2018-12-29T03:15:41.619Z,96549.22
2018-12-29T03:18:12.649Z,96540.19
2018-12-29T03:20:45.320Z,96540.54
2018-12-29T03:23:17.923Z,96534.21
2018-12-29T03:25:50.619Z,96541.59
2018-12-29T03:28:23.267Z,96546.59
2018-12-29T03:30:55.867Z,96527.92
2018-12-29T03:33:28.508Z,96527.95
2018-12-29T03:36:01.159Z,96534.30
2018-12-29T03:38:33.898Z,96531.35
2018-12-29T03:41:06.636Z,96526.50
2018-12-29T03:43:39.306Z,96523.14
2018-12-29T03:46:12.014Z,96522.62
2018-12-29T03:48:44.827Z,96516.56
2018-12-29T03:51:17.517Z,96529.81
2018-12-29T03:53:50.233Z,96527.48
2018-12-29T03:56:22.877Z,96529.59
2018-12-29T03:58:55.659Z,96533.16
2018-12-29T04:01:28.408Z,96539.43
2018-12-29T04:04:01.260Z,96546.91
2018-12-29T04:06:33.956Z,96550.77
2018-12-29T04:09:34.779Z,96555.36
2018-12-29T04:12:28.464Z,96554.87
2018-12-29T04:15:01.148Z,96549.52
2018-12-29T04:17:33.764Z,96550.03
2018-12-29T04:20:06.631Z,96552.15
2018-12-29T04:22:39.301Z,96543.45
2018-12-29T04:25:11.926Z,96536.86
2018-12-29T04:27:44.577Z,96544.61
2018-12-29T04:30:17.243Z,96537.70
2018-12-29T04:32:49.934Z,96542.81
2018-12-29T04:35:22.512Z,96544.50
2018-12-29T04:37:54.480Z,96536.75
2018-12-29T04:40:27.114Z,96554.61
2018-12-29T04:42:59.818Z,96567.55
2018-12-29T04:45:32.577Z,96581.19
2018-12-29T04:48:05.242Z,96586.30
2018-12-29T04:50:37.918Z,96584.80
2018-12-29T04:53:10.659Z,96584.40
2018-12-29T04:55:43.385Z,96590.70
2018-12-29T04:58:18.033Z,96591.67
2018-12-29T05:00:50.813Z,96584.80
2018-12-29T05:03:23.473Z,96582.47
2018-12-29T05:05:56.123Z,96583.59
2018-12-29T05:08:28.854Z,96600.39
2018-12-29T05:11:01.541Z,96600.55
2018-12-29T05:13:34.345Z,96604.46
2018-12-29T05:16:12.873Z,96594.64
2018-12-29T05:18:41.419Z,96587.42
2018-12-29T05:21:14.064Z,96581.23
2018-12-29T05:23:46.760Z,96594.66
2018-12-29T05:26:19.418Z,96596.91
2018-12-29T05:28:52.080Z,96603.06
2018-12-29T05:31:24.850Z,96607.53
2018-12-29T05:33:57.466Z,96609.30
2018-12-29T05:36:30.120Z,96608.16
2018-12-29T05:39:01.985Z,96614.27
2018-12-29T05:41:34.809Z,96621.75
2018-12-29T05:44:07.392Z,96618.56
2018-12-29T05:46:40.008Z,96618.73
2018-12-29T05:49:12.707Z,96607.50
2018-12-29T05:51:45.466Z,96616.63
2018-12-29T05:54:18.168Z,96622.63
2018-12-29T05:56:50.867Z,96639.00
2018-12-29T05:59:23.602Z,96632.85
2018-12-29T06:01:56.254Z,96637.13
2018-12-29T06:04:28.895Z,96627.82
2018-12-29T06:07:01.605Z,96640.80
2018-12-29T06:09:34.270Z,96643.33
2018-12-29T06:12:06.926Z,96655.27
2018-12-29T06:14:39.652Z,96657.25
2018-12-29T06:17:12.545Z,96650.94
2018-12-29T06:19:45.195Z,96649.09
2018-12-29T06:22:18.111Z,96653.67
2018-12-29T06:24:50.879Z,96654.61
2018-12-29T06:27:23.564Z,96662.80
2018-12-29T06:29:56.259Z,96654.81
2018-12-29T06:32:28.985Z,96660.05
2018-12-29T06:35:01.677Z,96652.39
2018-12-29T06:37:34.315Z,96672.81
2018-12-29T06:40:07.299Z,96676.04
2018-12-29T06:42:40.002Z,96674.27
2018-12-29T06:45:12.736Z,96680.80
2018-12-29T06:47:45.423Z,96671.53
2018-12-29T06:50:18.207Z,96675.28
2018-12-29T06:52:51.022Z,96684.99
2018-12-29T06:55:23.724Z,96678.13
2018-12-29T06:58:01.119Z,96676.95
2018-12-29T07:00:33.947Z,96668.97
2018-12-29T07:03:07.517Z,96677.50
2018-12-29T07:05:40.238Z,96682.36
2018-12-29T07:08:13.028Z,96675.28
2018-12-29T07:10:45.656Z,96681.70
2018-12-29T07:13:18.331Z,96670.70
2018-12-29T07:15:50.942Z,96677.53
2018-12-29T07:18:23.604Z,96686.99
2018-12-29T07:20:56.268Z,96685.78
2018-12-29T07:23:28.968Z,96685.75
2018-12-29T07:26:01.613Z,96678.05
2018-12-29T07:28:34.331Z,96685.95
2018-12-29T07:31:07.117Z,96692.17
2018-12-29T07:33:40.018Z,96685.48
2018-12-29T07:36:12.608Z,96691.52
2018-12-29T07:38:48.502Z,96694.28
2018-12-29T08:08:36.492Z,96730.41
2018-12-29T08:11:09.187Z,96735.89
2018-12-29T08:13:42.173Z,96740.00
2018-12-29T08:16:14.845Z,96731.24
2018-12-29T08:18:47.633Z,96720.34
2018-12-29T08:21:20.281Z,96732.61
2018-12-29T08:23:52.900Z,96733.25
2018-12-29T08:26:33.966Z,96718.96
2018-12-29T08:29:06.629Z,96721.78
2018-12-29T08:31:46.533Z,96725.97
2018-12-29T08:34:19.129Z,96725.77
2018-12-29T08:36:51.719Z,96730.84
2018-12-29T08:39:24.362Z,96722.67
2018-12-29T08:41:56.937Z,96717.70
2018-12-29T08:44:29.638Z,96722.91
2018-12-29T08:47:04.581Z,96740.09
2018-12-29T08:49:36.489Z,96739.33
2018-12-29T08:52:09.128Z,96732.70
2018-12-29T08:54:41.730Z,96738.39
2018-12-29T08:57:14.389Z,96728.08
2018-12-29T08:59:46.971Z,96733.67
2018-12-29T09:02:19.643Z,96727.25
2018-12-29T09:04:52.337Z,96724.00
2018-12-29T09:07:25.182Z,96730.17
2018-12-29T09:09:57.733Z,96728.07
2018-12-29T09:12:30.375Z,96738.88
2018-12-29T09:15:03.008Z,96750.16
2018-12-29T09:17:35.589Z,96757.77
2018-12-29T09:20:08.427Z,96756.13
2018-12-29T09:22:40.993Z,96765.88
2018-12-29T09:25:13.814Z,96770.83
2018-12-29T09:27:46.493Z,96785.53
2018-12-29T09:30:19.176Z,96785.22
2018-12-29T09:32:56.124Z,96795.11
2018-12-29T09:35:28.789Z,96804.34
2018-12-29T09:38:01.413Z,96799.63
2018-12-29T09:40:34.065Z,96803.98
2018-12-29T09:43:09.241Z,96814.36
2018-12-29T09:45:41.824Z,96801.38
2018-12-29T09:48:14.415Z,96799.23
2018-12-29T09:50:47.112Z,96802.56
2018-12-29T09:53:21.182Z,96804.45
2018-12-29T09:55:53.809Z,96794.11
2018-12-29T09:58:26.401Z,96791.31
2018-12-29T10:00:59.092Z,96797.70
2018-12-29T10:03:33.262Z,96785.56
2018-12-29T10:06:05.855Z,96786.09
2018-12-29T10:08:38.508Z,96789.42
2018-12-29T10:11:28.924Z,96784.03
2018-12-29T10:14:01.560Z,96792.53
2018-12-29T10:16:34.152Z,96782.87
2018-12-29T10:19:06.733Z,96790.63
2018-12-29T10:21:39.410Z,96791.83
2018-12-29T10:24:12.011Z,96789.42
2018-12-29T10:26:44.655Z,96774.39
2018-12-29T10:29:26.665Z,96777.20
2018-12-29T10:31:59.381Z,96766.28
2018-12-29T10:34:31.947Z,96761.17
2018-12-29T10:37:04.567Z,96761.22
2018-12-29T10:39:37.197Z,96763.87
2018-12-29T10:42:10.185Z,96773.55
2018-12-29T10:44:42.731Z,96776.90
2018-12-29T10:47:15.442Z,96776.39
2018-12-29T10:49:47.995Z,96791.89
2018-12-29T10:52:20.632Z,96782.77
2018-12-29T10:54:53.184Z,96782.72
2018-12-29T10:57:25.817Z,96785.33
2018-12-29T10:59:58.469Z,96791.48
2018-12-29T11:02:31.055Z,96796.11
2018-12-29T11:05:03.698Z,96789.23
2018-12-29T11:07:40.578Z,96791.41
2018-12-29T11:10:13.791Z,96780.80
2018-12-29T11:12:46.425Z,96775.95
2018-12-29T11:15:18.994Z,96766.27
2018-12-29T11:17:51.663Z,96768.30
2018-12-29T11:20:24.326Z,96759.73
2018-12-29T11:22:56.934Z,96758.84
2018-12-29T11:25:29.616Z,96764.36
2018-12-29T11:28:04.564Z,96762.34
2018-12-29T11:30:37.348Z,96769.56
2018-12-29T11:33:13.195Z,96771.71
2018-12-29T11:35:45.862Z,96767.00
2018-12-29T11:38:18.442Z,96760.23
2018-12-29T11:40:51.184Z,96753.55
2018-12-29T11:43:23.729Z,96746.88
2018-12-29T11:45:56.357Z,96736.02
2018-12-29T11:48:28.916Z,96734.59
2018-12-29T11:51:01.495Z,96726.02
2018-12-29T11:53:34.498Z,96725.28
2018-12-29T11:56:07.241Z,96715.22
2018-12-29T11:58:46.781Z,96725.08
2018-12-29T12:01:19.536Z,96710.03
2018-12-29T12:03:54.282Z,96714.56
2018-12-29T12:06:26.883Z,96713.83
2018-12-29T12:08:59.523Z,96716.52
2018-12-29T12:11:32.473Z,96721.89
2018-12-29T12:14:05.175Z,96725.48
2018-12-29T12:16:37.905Z,96720.09
2018-12-29T12:19:10.530Z,96720.62
2018-12-29T12:21:43.371Z,96734.41
2018-12-29T12:24:17.169Z,96733.36
2018-12-29T12:26:49.889Z,96726.34
2018-12-29T12:29:22.535Z,96720.12
2018-12-29T12:31:55.285Z,96716.21
2018-12-29T12:34:27.945Z,96713.92
2018-12-29T12:37:00.529Z,96724.63
2018-12-29T12:39:33.149Z,96749.98
2018-12-29T12:42:05.922Z,96745.26
2018-12-29T12:44:38.597Z,96747.03
2018-12-29T12:47:11.620Z,96744.42
2018-12-29T12:49:44.146Z,96739.27
2018-12-29T12:52:16.748Z,96744.01
2018-12-29T12:54:49.394Z,96731.25
2018-12-29T12:57:22.458Z,96719.44
2018-12-29T12:59:55.448Z,96715.61
2018-12-29T13:02:28.357Z,96725.22
2018-12-29T13:05:00.943Z,96733.63
2018-12-29T13:07:33.520Z,96731.66
2018-12-29T13:10:07.027Z,96724.63
2018-12-29T13:12:39.859Z,96711.44
2018-12-29T13:15:12.571Z,96718.45
2018-12-29T13:17:45.240Z,96707.00
2018-12-29T13:20:17.934Z,96695.15
2018-12-29T13:22:50.549Z,96687.31
2018-12-29T13:25:23.171Z,96675.00
2018-12-29T13:27:55.815Z,96673.48
2018-12-29T13:30:28.443Z,96667.80
2018-12-29T13:33:01.057Z,96662.26
2018-12-29T13:35:33.806Z,96655.45
2018-12-29T13:38:06.429Z,96652.27
2018-12-29T13:40:39.076Z,96630.88
2018-12-29T13:43:11.738Z,96625.45
2018-12-29T13:45:44.580Z,96636.55
2018-12-29T13:48:20.805Z,96641.47
2018-12-29T13:50:51.528Z,96644.64
2018-12-29T13:53:24.122Z,96647.38
2018-12-29T13:55:57.025Z,96647.09
2018-12-29T13:58:29.684Z,96659.88
2018-12-29T14:01:02.445Z,96677.23
2018-12-29T14:03:35.060Z,96687.39
2018-12-29T14:06:07.631Z,96680.19
2018-12-29T14:08:40.345Z,96688.33
2018-12-29T14:11:13.014Z,96693.55
2018-12-29T14:13:45.553Z,96713.25
2018-12-29T14:16:18.142Z,96696.93
2018-12-29T14:18:50.790Z,96699.02
2018-12-29T14:21:23.502Z,96686.45
2018-12-29T14:23:56.224Z,96682.59
2018-12-29T14:26:28.883Z,96690.03
2018-12-29T14:29:01.504Z,96712.38
2018-12-29T14:31:34.068Z,96713.44
2018-12-29T14:34:06.654Z,96697.79
2018-12-29T14:36:39.367Z,96680.67
2018-12-29T14:39:12.218Z,96684.38
2018-12-29T14:41:44.851Z,96676.04
2018-12-29T14:44:17.427Z,96662.24
2018-12-29T14:46:50.052Z,96646.80
2018-12-29T14:49:22.828Z,96621.71
2018-12-29T14:51:55.418Z,96620.80
2018-12-29T14:54:28.218Z,96626.09
2018-12-29T14:57:00.885Z,96617.17
2018-12-29T14:59:33.547Z,96617.43
2018-12-29T15:02:06.199Z,96610.21
2018-12-29T15:04:38.759Z,96601.77
2018-12-29T15:07:11.477Z,96599.30
2018-12-29T15:09:44.051Z,96600.75
2018-12-29T15:12:16.655Z,96608.39
2018-12-29T15:14:49.231Z,96613.13
2018-12-29T15:17:21.824Z,96619.16
2018-12-29T15:19:54.410Z,96621.22
2018-12-29T15:22:27.362Z,96625.34
2018-12-29T15:25:00.151Z,96630.22
2018-12-29T15:27:32.816Z,96629.16
2018-12-29T15:30:05.777Z,96633.84
2018-12-29T15:32:38.450Z,96633.22
2018-12-29T15:35:11.610Z,96620.89
2018-12-29T15:37:44.214Z,96625.86
2018-12-29T15:40:17.122Z,96629.52
2018-12-29T15:42:49.670Z,96635.67
2018-12-29T15:45:22.308Z,96643.71
2018-12-29T15:47:54.850Z,96658.45
2018-12-29T15:50:27.616Z,96682.33
2018-12-29T15:53:00.472Z,96684.06
2018-12-29T15:55:33.100Z,96680.75
2018-12-29T15:58:06.003Z,96677.25
2018-12-29T16:00:38.657Z,96683.75
2018-12-29T16:03:11.356Z,96680.44
2018-12-29T16:05:44.005Z,96683.81
2018-12-29T16:08:16.807Z,96678.98
2018-12-29T16:10:49.488Z,96684.91
2018-12-29T16:13:23.607Z,96689.72
2018-12-29T16:15:56.280Z,96697.68
2018-12-29T16:18:29.347Z,96697.02
2018-12-29T16:21:02.022Z,96697.06
2018-12-29T16:23:34.694Z,96709.45
2018-12-29T16:26:12.634Z,96718.13
2018-12-29T16:28:41.789Z,96715.61
2018-12-29T16:31:14.973Z,96714.78
2018-12-29T16:33:53.770Z,96705.97
2018-12-29T16:36:22.139Z,96695.73
2018-12-29T16:38:54.919Z,96682.88
2018-12-29T16:41:27.742Z,96679.22
2018-12-29T16:44:00.503Z,96677.32
2018-12-29T16:46:33.286Z,96674.05
2018-12-29T16:49:08.674Z,96668.50
2018-12-29T16:51:41.473Z,96667.16
2018-12-29T16:54:14.224Z,96670.91
2018-12-29T16:56:50.066Z,96681.02
2018-12-29T16:59:22.887Z,96676.66
2018-12-29T17:01:55.594Z,96675.58
2018-12-29T17:04:28.356Z,96660.17
2018-12-29T17:07:01.337Z,96662.28
2018-12-29T17:09:34.060Z,96667.52
2018-12-29T17:12:07.187Z,96660.03
2018-12-29T17:14:39.314Z,96658.05
2018-12-29T17:17:12.250Z,96669.06
2018-12-29T17:19:45.220Z,96667.83
2018-12-29T17:22:18.038Z,96667.64
2018-12-29T17:24:50.762Z,96673.50
2018-12-29T17:27:24.550Z,96673.02
2018-12-29T17:29:57.790Z,96672.94
2018-12-29T17:32:30.502Z,96661.78
2018-12-29T17:35:03.687Z,96639.00
2018-12-29T17:37:36.560Z,96628.52
2018-12-29T17:40:09.562Z,96617.05
2018-12-29T17:42:42.333Z,96607.57
2018-12-29T17:45:15.436Z,96602.45
2018-12-29T17:47:48.161Z,96581.86
2018-12-29T17:50:20.948Z,96586.34
2018-12-29T17:52:55.567Z,96575.66
2018-12-29T17:55:28.366Z,96572.84
2018-12-29T17:58:01.173Z,96569.66
2018-12-29T18:00:34.128Z,96573.41
2018-12-29T18:03:06.769Z,96578.14
2018-12-29T18:05:39.539Z,96582.81
2018-12-29T18:08:12.437Z,96578.60
2018-12-29T18:10:45.304Z,96590.58
2018-12-29T18:13:18.055Z,96587.83
2018-12-29T18:15:50.769Z,96602.43
2018-12-29T18:18:23.548Z,96597.95
2018-12-29T18:20:56.356Z,96605.78
2018-12-29T18:23:29.151Z,96624.59
2018-12-29T18:26:02.023Z,96664.88
2018-12-29T18:28:34.777Z,96685.41
2018-12-29T18:31:07.529Z,96712.67
2018-12-29T18:33:40.230Z,96740.13
2018-12-29T18:36:13.007Z,96764.25
2018-12-29T18:38:46.055Z,96770.91
2018-12-29T18:41:18.752Z,96771.25
2018-12-29T18:43:51.514Z,96770.95
2018-12-29T18:46:24.287Z,96756.88
2018-12-29T18:48:56.982Z,96754.06
2018-12-29T18:51:29.794Z,96774.27
2018-12-29T18:54:02.466Z,96779.59
2018-12-29T18:56:35.532Z,96785.70
2018-12-29T18:59:08.276Z,96785.80
2018-12-29T19:01:40.952Z,96790.92
2018-12-29T19:04:13.807Z,96798.23
2018-12-29T19:06:48.170Z,96794.05
2018-12-29T19:09:20.924Z,96799.98
2018-12-29T19:11:53.781Z,96819.73
2018-12-29T19:14:28.859Z,96818.27
2018-12-29T19:17:01.702Z,96812.89
2018-12-29T19:19:34.851Z,96802.83
2018-12-29T19:22:07.599Z,96796.97
2018-12-29T19:24:42.831Z,96801.55
2018-12-29T19:27:15.522Z,96805.11
2018-12-29T19:29:49.528Z,96801.07
2018-12-29T19:32:22.639Z,96814.28
2018-12-29T19:34:55.750Z,96804.66
2018-12-29T19:37:28.407Z,96804.75
2018-12-29T19:40:01.310Z,96806.87
2018-12-29T19:42:34.229Z,96801.54
2018-12-29T19:45:07.306Z,96823.25
2018-12-29T19:47:40.045Z,96810.62
2018-12-29T19:50:13.476Z,96806.87
2018-12-29T19:52:46.129Z,96808.22
2018-12-29T19:55:18.764Z,96802.00
2018-12-29T19:57:51.472Z,96794.77
2018-12-29T20:00:24.655Z,96789.38
2018-12-29T20:02:57.286Z,96792.39
2018-12-29T20:05:30.151Z,96802.35
2018-12-29T20:08:02.925Z,96804.66
2018-12-29T20:10:35.541Z,96801.35
2018-12-29T20:13:10.217Z,96796.03
2018-12-29T20:15:42.833Z,96793.22
2018-12-29T20:18:15.549Z,96786.88
2018-12-29T20:20:48.155Z,96793.75
2018-12-29T20:23:20.952Z,96796.47
2018-12-29T20:25:53.773Z,96779.55
2018-12-29T20:28:26.432Z,96778.06
2018-12-29T20:30:59.098Z,96790.98
2018-12-29T20:33:31.833Z,96800.13
2018-12-29T20:36:04.432Z,96802.78
2018-12-29T20:38:37.250Z,96791.69
2018-12-29T20:41:09.985Z,96795.73
2018-12-29T20:43:42.808Z,96794.64
2018-12-29T20:46:15.510Z,96811.87
2018-12-29T20:48:48.601Z,96793.46
2018-12-29T20:51:21.391Z,96776.98
2018-12-29T20:53:54.403Z,96766.87
2018-12-29T20:56:27.036Z,96764.84
2018-12-29T20:58:59.671Z,96756.61
2018-12-29T21:01:32.375Z,96762.87
2018-12-29T21:04:05.216Z,96743.06
2018-12-29T21:06:37.902Z,96736.00
2018-12-29T21:09:10.558Z,96724.14
2018-12-29T21:11:43.373Z,96735.69
2018-12-29T21:14:16.014Z,96724.89
2018-12-29T21:16:50.656Z,96717.00
2018-12-29T21:19:23.428Z,96716.95
2018-12-29T21:21:56.109Z,96727.36
2018-12-29T21:24:28.893Z,96713.02
2018-12-29T21:27:01.547Z,96718.50
2018-12-29T21:29:34.215Z,96715.48
2018-12-29T21:32:06.896Z,96696.45
2018-12-29T21:34:39.485Z,96703.70
2018-12-29T21:37:12.140Z,96713.48
2018-12-29T21:39:44.856Z,96711.65
2018-12-29T21:42:17.579Z,96720.62
2018-12-29T21:44:50.228Z,96717.32
2018-12-29T21:47:22.930Z,96713.12
2018-12-29T21:49:55.557Z,96720.16
2018-12-29T21:52:28.176Z,96738.45
2018-12-29T21:55:04.607Z,96742.48
2018-12-29T21:57:37.335Z,96741.99
2018-12-29T22:00:10.761Z,96732.00
2018-12-29T22:02:43.431Z,96729.91
2018-12-29T22:05:16.138Z,96739.27
2018-12-29T22:07:48.761Z,96748.30
2018-12-29T22:10:21.524Z,96739.16
2018-12-29T22:12:54.177Z,96730.30
2018-12-29T22:15:26.797Z,96740.25
2018-12-29T22:17:59.744Z,96738.85
2018-12-29T22:20:33.440Z,96743.87
2018-12-29T22:23:06.341Z,96741.83
2018-12-29T22:25:39.061Z,96734.74
2018-12-29T22:28:12.423Z,96745.36
2018-12-29T22:30:45.048Z,96740.78
2018-12-29T22:33:17.814Z,96741.51
2018-12-29T22:35:50.472Z,96754.72
2018-12-29T22:38:23.578Z,96760.08
2018-12-29T22:40:56.226Z,96757.41
2018-12-29T22:43:28.870Z,96764.58
2018-12-29T22:46:01.968Z,96762.64
2018-12-29T22:48:36.649Z,96755.20
2018-12-29T22:51:09.398Z,96770.40
2018-12-29T22:53:42.004Z,96762.95
2018-12-29T22:56:14.639Z,96764.58
2018-12-29T22:58:47.542Z,96779.98
2018-12-29T23:01:21.862Z,96770.69
2018-12-29T23:03:54.420Z,96764.83
2018-12-29T23:06:27.036Z,96761.28
2018-12-29T23:08:59.703Z,96771.80
2018-12-29T23:11:32.450Z,96766.94
2018-12-29T23:14:05.207Z,96770.80
2018-12-29T23:16:37.885Z,96763.97
2018-12-29T23:19:10.610Z,96756.57
2018-12-29T23:21:43.297Z,96750.50
2018-12-29T23:24:16.393Z,96749.11
2018-12-29T23:26:49.091Z,96753.94
2018-12-29T23:29:22.255Z,96751.70
2018-12-29T23:31:54.897Z,96749.31
2018-12-29T23:34:27.727Z,96744.07
2018-12-29T23:37:00.418Z,96744.70
2018-12-29T23:39:33.077Z,96737.10
